createdAt,value
2023-03-26T00:00:29.322Z,4.20
2023-03-26T00:05:35.068Z,4.10
2023-03-26T00:10:40.154Z,3.95
2023-03-26T00:15:42.046Z,4.32
2023-03-26T00:20:46.654Z,3.38
2023-03-26T00:25:50.933Z,4.30
2023-03-26T00:31:04.841Z,4.40
2023-03-26T00:36:14.688Z,4.97
2023-03-26T00:41:22.776Z,4.30
2023-03-26T00:46:26.260Z,3.83
2023-03-26T00:51:28.967Z,3.33
2023-03-26T00:56:30.890Z,3.20
2023-03-26T01:01:32.769Z,3.42
2023-03-26T01:06:37.993Z,2.95
2023-03-26T01:11:39.775Z,3.97
2023-03-26T01:16:47.900Z,4.00
2023-03-26T01:21:49.597Z,11.98
2023-03-26T01:27:10.021Z,5.03
2023-03-26T01:32:38.066Z,4.07
2023-03-26T01:37:52.569Z,3.40
2023-03-26T01:43:24.524Z,7.03
2023-03-26T01:48:36.852Z,3.85
2023-03-26T01:53:43.666Z,3.97
2023-03-26T01:59:07.450Z,3.45
2023-03-26T02:04:24.751Z,3.30
2023-03-26T02:09:31.110Z,4.20
2023-03-26T02:14:32.783Z,4.60
2023-03-26T02:19:34.618Z,3.35
2023-03-26T02:24:36.327Z,3.70
2023-03-26T02:29:39.958Z,3.83
2023-03-26T02:34:42.320Z,3.10
2023-03-26T02:39:46.302Z,3.70
2023-03-26T02:44:47.993Z,3.08
2023-03-26T02:49:49.682Z,3.35
2023-03-26T02:54:51.733Z,3.60
2023-03-26T02:59:53.527Z,2.88
2023-03-26T03:05:01.618Z,3.30
2023-03-26T03:10:08.774Z,3.55
2023-03-26T03:15:13.158Z,3.33
2023-03-26T03:20:15.661Z,3.42
2023-03-26T03:25:26.171Z,3.60
2023-03-26T03:30:29.933Z,4.07
2023-03-26T03:35:31.964Z,3.75
2023-03-26T03:40:33.757Z,4.45
2023-03-26T03:45:35.698Z,3.58
2023-03-26T03:50:38.633Z,4.32
2023-03-26T03:55:43.983Z,3.67
2023-03-26T04:00:52.918Z,3.55
2023-03-26T04:05:55.667Z,3.80
2023-03-26T04:10:57.492Z,4.60
2023-03-26T04:15:59.547Z,4.00
2023-03-26T04:21:05.277Z,4.50
2023-03-26T04:26:10.535Z,4.55
2023-03-26T04:31:20.184Z,4.47
2023-03-26T04:36:28.647Z,5.05
2023-03-26T04:41:30.387Z,4.30
2023-03-26T04:46:33.735Z,4.57
2023-03-26T04:51:41.772Z,4.78
2023-03-26T04:57:03.596Z,4.38
2023-03-26T05:02:06.247Z,4.40
2023-03-26T05:07:09.707Z,6.35
2023-03-26T05:12:11.416Z,4.88
2023-03-26T05:17:15.368Z,3.95
2023-03-26T05:22:17.163Z,4.85
2023-03-26T05:27:21.994Z,4.50
2023-03-26T05:32:23.830Z,4.22
2023-03-26T05:37:32.000Z,4.38
2023-03-26T05:42:33.746Z,4.07
2023-03-26T05:47:35.593Z,4.35
2023-03-26T05:52:39.926Z,4.38
2023-03-26T05:57:42.854Z,3.88
2023-03-26T06:02:46.504Z,3.92
2023-03-26T06:08:05.854Z,3.75
2023-03-26T06:13:07.646Z,3.80
2023-03-26T06:18:09.842Z,3.78
2023-03-26T06:23:11.722Z,4.47
2023-03-26T06:28:13.943Z,4.55
2023-03-26T06:33:15.767Z,4.88
2023-03-26T06:38:17.480Z,3.90
2023-03-26T06:43:24.640Z,3.72
2023-03-26T06:48:39.718Z,4.90
2023-03-26T06:53:41.649Z,3.88
2023-03-26T06:58:43.414Z,3.10
2023-03-26T07:03:45.273Z,3.83
2023-03-26T07:08:47.096Z,5.03
2023-03-26T07:13:48.765Z,3.00
2023-03-26T07:18:51.039Z,5.47
2023-03-26T07:23:55.044Z,4.60
2023-03-26T07:29:24.233Z,4.38
2023-03-26T07:35:14.920Z,4.95
2023-03-26T07:40:43.826Z,3.75
2023-03-26T07:45:46.248Z,3.35
2023-03-26T07:50:52.152Z,3.50
2023-03-26T07:56:03.402Z,4.15
2023-03-26T08:01:28.175Z,3.03
2023-03-26T08:06:41.127Z,3.70
2023-03-26T08:12:07.870Z,4.18
2023-03-26T08:17:17.718Z,3.20
2023-03-26T08:22:27.531Z,4.63
2023-03-26T08:27:52.010Z,3.63
2023-03-26T08:33:04.543Z,3.67
2023-03-26T08:38:06.647Z,2.90
2023-03-26T08:43:29.263Z,4.32
2023-03-26T08:48:33.842Z,4.32
2023-03-26T08:53:49.949Z,3.80
2023-03-26T08:59:25.303Z,3.28
2023-03-26T09:04:53.963Z,3.20
2023-03-26T09:10:15.804Z,3.45
2023-03-26T09:15:58.712Z,3.97
2023-03-26T09:21:32.964Z,3.55
2023-03-26T09:26:37.489Z,2.97
2023-03-26T09:32:00.308Z,3.50
2023-03-26T09:37:24.643Z,3.33
2023-03-26T09:43:01.463Z,3.33
2023-03-26T09:48:24.141Z,3.88
2023-03-26T09:54:06.361Z,3.45
2023-03-26T09:59:22.258Z,3.70
2023-03-26T10:05:02.400Z,2.80
2023-03-26T10:10:33.596Z,2.95
2023-03-26T10:15:57.931Z,2.72
2023-03-26T10:21:12.651Z,2.10
2023-03-26T10:26:38.942Z,3.10
2023-03-26T10:31:46.785Z,3.17
2023-03-26T10:37:12.826Z,3.40
2023-03-26T10:42:37.272Z,2.85
2023-03-26T10:48:14.989Z,2.60
2023-03-26T10:53:22.841Z,2.43
2023-03-26T10:58:29.232Z,3.40
2023-03-26T11:03:56.753Z,3.60
2023-03-26T11:09:35.072Z,3.38
2023-03-26T11:14:59.721Z,2.65
2023-03-26T11:20:20.083Z,2.35
2023-03-26T11:25:55.742Z,3.30
2023-03-26T11:31:19.801Z,3.15
2023-03-26T11:36:26.342Z,2.00
2023-03-26T11:41:32.561Z,2.15
2023-03-26T11:46:39.306Z,2.60
2023-03-26T11:51:59.345Z,2.27
2023-03-26T11:57:07.906Z,2.20
2023-03-26T12:02:09.892Z,2.53
2023-03-26T12:07:22.767Z,2.03
2023-03-26T12:12:31.517Z,2.53
2023-03-26T12:17:36.890Z,2.75
2023-03-26T12:23:12.234Z,2.38
2023-03-26T12:28:14.296Z,2.22
2023-03-26T12:33:22.428Z,2.15
2023-03-26T12:38:33.499Z,2.70
2023-03-26T12:44:48.417Z,3.10
2023-03-26T12:49:22.232Z,2.03
2023-03-26T12:54:53.746Z,3.13
2023-03-26T13:00:27.446Z,3.08
2023-03-26T13:05:47.576Z,1.90
2023-03-26T13:11:12.197Z,2.58
2023-03-26T13:22:18.197Z,2.15
2023-03-26T13:27:19.886Z,2.63
2023-03-26T13:32:39.641Z,2.47
2023-03-26T13:37:54.606Z,2.42
2023-03-26T13:43:38.222Z,2.33
2023-03-26T13:49:13.318Z,2.28
2023-03-26T13:54:27.061Z,2.60
2023-03-26T13:59:49.833Z,1.98
2023-03-26T14:04:58.236Z,2.45
2023-03-26T14:10:26.622Z,2.15
2023-03-26T14:15:58.100Z,1.75
2023-03-26T14:21:24.475Z,2.45
2023-03-26T14:26:44.537Z,2.33
2023-03-26T14:32:30.968Z,2.03
2023-03-26T14:43:54.308Z,2.15
2023-03-26T14:49:27.197Z,1.85
2023-03-26T14:54:47.950Z,2.47
2023-03-26T15:00:16.709Z,2.33
2023-03-26T15:06:16.308Z,2.42
2023-03-26T15:11:51.855Z,2.03
2023-03-26T15:23:03.985Z,1.73
2023-03-26T15:33:59.565Z,2.20
2023-03-26T15:39:07.088Z,2.55
2023-03-26T15:44:53.538Z,1.92
2023-03-26T15:50:02.572Z,1.80
2023-03-26T15:55:16.269Z,1.60
2023-03-26T16:01:24.553Z,1.60
2023-03-26T16:06:51.750Z,2.67
2023-03-26T16:11:57.196Z,2.53
2023-03-26T16:17:06.357Z,2.03
2023-03-26T16:22:43.041Z,2.40
2023-03-26T16:27:45.740Z,2.60
2023-03-26T16:33:31.591Z,2.08
2023-03-26T16:39:12.665Z,2.45
2023-03-26T16:44:40.303Z,2.00
2023-03-26T16:50:07.779Z,1.90
2023-03-26T16:55:58.950Z,2.03
2023-03-26T17:07:52.681Z,2.10
2023-03-26T17:13:09.161Z,2.22
2023-03-26T17:18:39.279Z,2.30
2023-03-26T17:24:36.748Z,1.92
2023-03-26T17:30:03.952Z,2.25
2023-03-26T17:35:36.780Z,1.98
2023-03-26T17:41:50.426Z,2.30
2023-03-26T17:46:36.327Z,1.60
2023-03-26T17:51:58.497Z,2.27
2023-03-26T17:57:50.199Z,3.05
2023-03-26T18:09:15.784Z,3.17
2023-03-26T18:21:19.719Z,1.73
2023-03-26T18:26:41.384Z,2.60
2023-03-26T18:32:48.666Z,2.47
2023-03-26T18:43:34.375Z,1.77
2023-03-26T18:48:37.266Z,2.70
2023-03-26T18:54:08.143Z,2.17
2023-03-26T18:59:48.479Z,2.08
2023-03-26T19:04:54.357Z,1.77
2023-03-26T19:09:56.787Z,2.10
2023-03-26T19:15:14.634Z,1.80
2023-03-26T19:20:34.612Z,2.03
2023-03-26T19:25:59.888Z,1.73
2023-03-26T19:31:17.947Z,1.52
2023-03-26T19:42:04.784Z,1.67
2023-03-26T19:47:17.072Z,1.67
2023-03-26T19:52:38.546Z,1.80
2023-03-26T19:57:40.310Z,1.63
2023-03-26T20:02:43.601Z,1.58
2023-03-26T20:07:54.840Z,1.75
2023-03-26T20:12:56.743Z,1.63
2023-03-26T20:18:10.140Z,1.70
2023-03-26T20:23:20.395Z,1.67
2023-03-26T20:28:42.480Z,1.95
2023-03-26T20:33:51.981Z,2.05
2023-03-26T20:39:19.127Z,1.90
2023-03-26T20:49:43.257Z,1.73
2023-03-26T20:54:49.517Z,1.10
2023-03-26T20:59:51.605Z,1.38
2023-03-26T21:16:13.070Z,1.30
2023-03-26T21:21:46.314Z,1.40
2023-03-26T21:27:08.421Z,1.88
2023-03-26T21:32:12.346Z,1.40
2023-03-26T21:37:15.776Z,1.63
2023-03-26T21:42:21.124Z,1.30
2023-03-26T21:47:34.980Z,1.17
2023-03-26T21:53:32.248Z,1.77
2023-03-26T21:58:51.540Z,1.40
2023-03-26T22:03:56.883Z,1.63
2023-03-26T22:09:13.745Z,2.22
2023-03-26T22:20:52.102Z,1.45
2023-03-26T22:25:56.822Z,1.10
2023-03-26T22:36:40.292Z,2.00
2023-03-26T22:41:42.976Z,1.40
2023-03-26T22:47:05.873Z,1.20
2023-03-26T22:52:07.765Z,1.30
2023-03-26T22:57:09.720Z,1.30
2023-03-26T23:02:12.437Z,1.42
2023-03-26T23:07:27.526Z,1.30
2023-03-26T23:19:34.741Z,1.00
2023-03-26T23:24:37.944Z,1.30
2023-03-26T23:29:39.775Z,1.33
2023-03-26T23:34:51.895Z,1.63
2023-03-26T23:40:10.482Z,1.15
2023-03-26T23:45:19.589Z,1.38
2023-03-26T23:50:21.555Z,0.95
2023-03-26T23:55:29.957Z,1.85
